Time;durP1;ratioP1;P1;durP2;ratioP2;P2;SDS_P1;SDS_P2;PMS_P1;PMS_P2;Temp;Humidity;BMP_temperature;BMP_pressure;BME280_temperature;BME280_humidity;BME280_pressure;Samples;Min_cycle;Max_cycle;Signal;HPM_P1;HPM_P2
2022/04/05 00:01:53;;;;;;;10.43;8.60;;;7.40;73.10;;;;;;20841444;28;20346;-69
2022/04/05 00:11:56;;;;;;;10.20;8.07;;;7.50;73.10;;;;;;20840309;28;20216;-69
2022/04/05 00:21:57;;;;;;;11.70;8.20;;;7.50;73.20;;;;;;20838923;28;20232;-70
2022/04/05 00:31:59;;;;;;;11.60;7.93;;;7.60;73.50;;;;;;20837644;28;20572;-70
2022/04/05 00:42:01;;;;;;;9.70;7.87;;;7.60;73.40;;;;;;20838199;28;20255;-70
2022/04/05 00:52:02;;;;;;;9.87;8.20;;;7.60;74.40;;;;;;20838615;28;20609;-69
2022/04/05 01:02:04;;;;;;;11.97;8.50;;;7.50;75.60;;;;;;20837684;28;20298;-69
2022/04/05 01:12:08;;;;;;;12.43;8.60;;;7.40;77.70;;;;;;20835645;28;20215;-69
2022/04/05 01:22:10;;;;;;;10.63;8.10;;;7.30;79.40;;;;;;20834911;28;20651;-68
2022/04/05 01:32:12;;;;;;;11.33;7.90;;;7.30;80.60;;;;;;20834611;28;20215;-69
2022/04/05 01:42:15;;;;;;;9.60;7.70;;;7.20;81.40;;;;;;20832365;28;20275;-69
2022/04/05 01:52:17;;;;;;;12.13;8.47;;;7.20;82.20;;;;;;20832712;28;20296;-69
2022/04/05 02:02:19;;;;;;;10.40;8.10;;;7.00;83.40;;;;;;20832039;28;20233;-69
2022/04/05 02:12:21;;;;;;;10.47;7.97;;;7.00;84.60;;;;;;20831013;28;20205;-69
2022/04/05 02:22:23;;;;;;;10.70;7.50;;;7.00;85.00;;;;;;20899155;28;20236;-69
2022/04/05 02:32:25;;;;;;;10.13;7.63;;;6.90;87.10;;;;;;20911475;28;20295;-68
2022/04/05 02:42:26;;;;;;;11.17;7.63;;;6.90;88.10;;;;;;20911920;28;20258;-70
2022/04/05 02:52:29;;;;;;;10.57;7.60;;;6.90;88.90;;;;;;20911503;28;20273;-70
2022/04/05 03:02:30;;;;;;;12.17;7.73;;;6.90;89.90;;;;;;20928418;28;20324;-69
2022/04/05 03:12:34;;;;;;;10.27;7.70;;;6.90;90.20;;;;;;20927430;28;20210;-70
2022/04/05 03:22:36;;;;;;;10.50;7.23;;;6.80;90.60;;;;;;20926770;28;20721;-70
2022/04/05 03:32:37;;;;;;;9.27;7.37;;;6.90;90.80;;;;;;20927757;28;20207;-70
2022/04/05 03:42:40;;;;;;;10.60;7.13;;;6.90;91.00;;;;;;20923994;28;20251;-70
2022/04/05 03:52:41;;;;;;;9.87;6.87;;;6.90;91.20;;;;;;20924677;28;20231;-70
2022/04/05 04:02:43;;;;;;;13.17;7.33;;;6.90;91.50;;;;;;20923969;28;20236;-71
2022/04/05 04:12:45;;;;;;;10.23;6.70;;;6.90;91.70;;;;;;20922182;28;20257;-71
2022/04/05 04:22:46;;;;;;;10.27;7.13;;;7.00;91.60;;;;;;20882722;28;20607;-70
2022/04/05 04:32:48;;;;;;;9.50;7.00;;;7.10;91.70;;;;;;20926520;28;20208;-69
2022/04/05 04:42:50;;;;;;;9.90;6.77;;;7.00;91.90;;;;;;20839715;28;20240;-69
2022/04/05 04:52:52;;;;;;;7.67;6.20;;;7.00;91.90;;;;;;20837278;28;20205;-71
2022/04/05 05:02:53;;;;;;;10.47;5.57;;;7.00;92.00;;;;;;20905438;28;20232;-72
2022/04/05 05:12:55;;;;;;;8.03;5.83;;;7.00;91.80;;;;;;20883143;28;20201;-71
2022/04/05 05:22:58;;;;;;;7.07;5.60;;;7.10;92.10;;;;;;20875631;28;20235;-67
2022/04/05 05:33:00;;;;;;;7.70;5.80;;;7.10;92.10;;;;;;20916526;28;20207;-73
2022/04/05 05:43:03;;;;;;;7.50;5.70;;;7.20;91.80;;;;;;20915223;28;20600;-69
2022/04/05 05:53:05;;;;;;;7.47;6.10;;;7.20;92.10;;;;;;20914415;28;20664;-70
2022/04/05 06:03:10;;;;;;;7.13;5.13;;;7.30;92.30;;;;;;20913497;28;20240;-67
2022/04/05 06:13:12;;;;;;;6.57;5.20;;;7.30;92.40;;;;;;20913065;28;20685;-67
2022/04/05 06:23:14;;;;;;;7.27;5.30;;;7.60;92.80;;;;;;20926534;28;20621;-64
2022/04/05 06:33:18;;;;;;;7.00;5.30;;;7.50;93.00;;;;;;20997386;28;20220;-67
2022/04/05 06:43:24;;;;;;;7.13;5.37;;;7.40;93.40;;;;;;20944034;28;20246;-67
2022/04/05 06:53:28;;;;;;;8.93;6.43;;;7.40;93.70;;;;;;20903229;28;20238;-64
2022/04/05 07:03:29;;;;;;;8.57;6.50;;;7.30;93.90;;;;;;20830083;28;20229;-65
2022/04/05 07:13:37;;;;;;;7.07;5.53;;;7.30;94.30;;;;;;20882872;28;20215;-64
2022/04/05 07:23:39;;;;;;;8.10;6.47;;;7.40;94.40;;;;;;20873221;28;20233;-67
2022/04/05 07:33:41;;;;;;;7.47;5.40;;;7.50;94.60;;;;;;20889257;28;20247;-68
2022/04/05 07:43:42;;;;;;;5.90;4.60;;;7.50;94.60;;;;;;20914173;28;20592;-67
2022/04/05 07:53:44;;;;;;;7.60;5.17;;;7.60;94.90;;;;;;20845457;28;20557;-70
2022/04/05 08:03:46;;;;;;;4.73;4.17;;;7.90;94.90;;;;;;20838588;28;20245;-66
2022/04/05 08:13:48;;;;;;;4.83;4.00;;;8.00;94.80;;;;;;20838693;28;20576;-65
2022/04/05 08:23:52;;;;;;;5.27;3.70;;;8.10;94.80;;;;;;20839278;28;20330;-63
2022/04/05 08:33:54;;;;;;;4.20;3.50;;;8.30;94.80;;;;;;20898274;28;20217;-62
2022/04/05 08:43:57;;;;;;;3.10;2.80;;;8.40;94.80;;;;;;20879521;28;20756;-66
2022/04/05 08:58:23;;;;;;;4.10;2.80;;;8.40;94.60;;;;;;20977746;28;20559;-72
2022/04/05 09:08:28;;;;;;;2.70;2.50;;;8.50;94.50;;;;;;20957121;28;20231;-65
2022/04/05 09:18:40;;;;;;;2.50;2.30;;;8.60;94.60;;;;;;20957674;28;20240;-67
2022/04/05 09:28:49;;;;;;;2.80;2.30;;;8.90;94.50;;;;;;20913612;28;20333;-67
2022/04/05 09:38:51;;;;;;;4.23;3.13;;;9.20;94.10;;;;;;20895891;28;20728;-65
2022/04/05 09:49:07;;;;;;;2.73;2.30;;;9.30;93.70;;;;;;20893640;28;20241;-65
2022/04/05 09:59:18;;;;;;;4.40;2.53;;;9.40;93.30;;;;;;20895150;28;20221;-69
2022/04/05 10:09:21;;;;;;;2.70;2.50;;;9.40;93.10;;;;;;20840676;28;20239;-65
2022/04/05 10:19:25;;;;;;;4.13;2.87;;;9.20;93.40;;;;;;20842478;28;20726;-67
2022/04/05 10:29:27;;;;;;;3.10;2.80;;;9.20;93.60;;;;;;20854215;28;20245;-64
2022/04/05 10:39:29;;;;;;;3.77;3.00;;;9.20;93.60;;;;;;20843179;28;20233;-66
2022/04/05 10:49:39;;;;;;;3.33;2.93;;;9.20;93.70;;;;;;20838023;28;20285;-67
2022/04/05 10:59:55;;;;;;;5.23;3.23;;;9.20;93.70;;;;;;20837875;28;20221;-69
2022/04/05 11:10:02;;;;;;;4.40;3.50;;;9.20;93.50;;;;;;20917622;28;20335;-71
2022/04/05 11:20:05;;;;;;;3.50;3.17;;;9.30;93.70;;;;;;20918296;28;20300;-73
2022/04/05 11:30:26;;;;;;;4.30;3.60;;;9.50;93.40;;;;;;20842700;28;20228;-70
2022/04/05 11:40:30;;;;;;;4.20;3.80;;;9.60;93.50;;;;;;20831923;28;20203;-72
2022/04/05 11:50:37;;;;;;;4.97;3.93;;;9.50;93.30;;;;;;20831550;28;20239;-71
2022/04/05 12:00:52;;;;;;;4.67;3.97;;;9.60;93.20;;;;;;20830879;28;20231;-69
2022/04/05 12:10:54;;;;;;;4.70;3.93;;;10.00;92.50;;;;;;20829619;28;20258;-72
2022/04/05 12:21:03;;;;;;;5.80;4.50;;;10.00;92.20;;;;;;20825482;28;20651;-69
2022/04/05 12:31:10;;;;;;;6.13;4.73;;;10.00;92.40;;;;;;20827236;28;20597;-71
2022/04/05 12:41:21;;;;;;;5.13;4.30;;;10.10;92.50;;;;;;20826785;28;20321;-72
2022/04/05 12:51:32;;;;;;;5.80;4.83;;;10.30;92.10;;;;;;20827050;28;20679;-72
2022/04/05 13:01:33;;;;;;;6.43;4.97;;;10.40;92.40;;;;;;20828165;28;20217;-71
2022/04/05 13:11:37;;;;;;;6.40;4.93;;;10.60;92.30;;;;;;20827367;28;20269;-72
2022/04/05 13:21:44;;;;;;;6.37;4.70;;;10.80;91.70;;;;;;20827194;28;20287;-74
2022/04/05 13:31:49;;;;;;;6.53;5.30;;;10.80;91.90;;;;;;20832921;28;20232;-75
2022/04/05 13:41:54;;;;;;;5.87;4.60;;;10.70;91.50;;;;;;20837377;28;20204;-72
2022/04/05 13:51:57;;;;;;;5.97;4.60;;;10.60;91.60;;;;;;20840955;28;20248;-72
2022/04/05 14:02:18;;;;;;;5.93;4.73;;;10.70;92.10;;;;;;20858041;28;20203;-66
2022/04/05 14:14:16;;;;;;;6.33;4.83;;;10.70;91.70;;;;;;20982695;28;20568;-67
2022/04/05 14:24:17;;;;;;;6.93;4.90;;;10.70;91.80;;;;;;20981434;28;20730;-68
2022/04/05 14:34:19;;;;;;;7.10;4.93;;;10.80;92.20;;;;;;20980531;28;20217;-71
2022/04/05 14:44:22;;;;;;;5.57;4.97;;;10.90;92.30;;;;;;20980056;28;20215;-71
2022/04/05 14:54:24;;;;;;;5.37;4.87;;;11.10;92.10;;;;;;20979425;28;20581;-70
2022/04/05 15:04:27;;;;;;;8.40;5.10;;;11.50;91.90;;;;;;20978125;28;20207;-69
2022/04/05 15:14:29;;;;;;;6.60;4.93;;;11.50;91.40;;;;;;20964403;28;20574;-73
2022/04/05 15:24:33;;;;;;;7.13;5.23;;;11.50;91.10;;;;;;20903134;28;20210;-75
2022/04/05 15:34:35;;;;;;;5.87;4.67;;;11.30;91.10;;;;;;20881268;28;20295;-75
2022/04/05 15:44:41;;;;;;;5.83;4.70;;;11.20;91.40;;;;;;20839368;28;20682;-72
2022/04/05 15:54:43;;;;;;;6.73;5.27;;;11.10;91.60;;;;;;20838046;28;20212;-70
2022/04/05 16:04:44;;;;;;;6.83;5.20;;;11.00;91.60;;;;;;20836735;28;20242;-72
2022/04/05 16:14:47;;;;;;;6.37;5.10;;;11.10;91.70;;;;;;20906111;28;20197;-72
2022/04/05 16:24:50;;;;;;;6.60;5.07;;;11.00;91.90;;;;;;20918406;28;20255;-73
2022/04/05 16:34:52;;;;;;;7.53;5.20;;;11.00;92.00;;;;;;20916504;28;20208;-72
2022/04/05 16:44:54;;;;;;;6.20;5.03;;;10.90;92.10;;;;;;20928638;28;20232;-73
2022/04/05 16:55:00;;;;;;;4.97;4.40;;;10.90;92.50;;;;;;20921921;28;20200;-74
2022/04/05 17:05:06;;;;;;;5.57;4.50;;;10.80;92.40;;;;;;20916083;28;20239;-75
2022/04/05 17:15:13;;;;;;;5.63;4.80;;;10.80;92.70;;;;;;20914812;28;20214;-72
2022/04/05 17:25:15;;;;;;;7.43;5.47;;;10.80;92.70;;;;;;20913538;28;20263;-72
2022/04/05 17:35:16;;;;;;;8.63;4.97;;;10.80;93.00;;;;;;20853956;28;20204;-72
2022/04/05 17:45:18;;;;;;;5.20;4.67;;;10.80;93.10;;;;;;20863982;28;20260;-74
2022/04/05 17:55:20;;;;;;;7.47;5.67;;;10.70;93.20;;;;;;20911065;28;20207;-74
2022/04/05 18:05:24;;;;;;;6.40;5.00;;;10.70;93.60;;;;;;20898015;28;20247;-72
2022/04/05 18:15:28;;;;;;;6.57;5.33;;;10.70;93.80;;;;;;20909297;28;20203;-72
2022/04/05 18:25:30;;;;;;;6.33;5.20;;;10.60;94.00;;;;;;20907979;28;20236;-72
2022/04/05 18:35:31;;;;;;;6.70;5.10;;;10.70;94.20;;;;;;20910408;28;20695;-71
2022/04/05 18:45:33;;;;;;;6.90;5.33;;;10.70;94.30;;;;;;20910150;28;20238;-70
2022/04/05 18:55:35;;;;;;;5.77;4.70;;;10.60;94.40;;;;;;20915298;28;20204;-70
2022/04/05 19:05:39;;;;;;;6.13;5.30;;;10.60;94.70;;;;;;20923845;28;20243;-71
2022/04/05 19:15:41;;;;;;;6.47;4.77;;;10.70;94.70;;;;;;20923744;28;20204;-72
2022/04/05 19:25:43;;;;;;;5.47;4.83;;;10.70;94.70;;;;;;20922477;28;20235;-72
2022/04/05 19:35:44;;;;;;;5.53;4.83;;;10.80;94.50;;;;;;20921700;28;20212;-71
2022/04/05 19:45:47;;;;;;;5.77;5.10;;;10.80;94.80;;;;;;20920962;28;20241;-70
2022/04/05 19:55:49;;;;;;;7.00;5.67;;;10.70;95.00;;;;;;20920530;28;20208;-72
2022/04/05 20:05:51;;;;;;;5.53;4.93;;;10.70;94.90;;;;;;20918447;28;20236;-70
2022/04/05 20:15:53;;;;;;;7.20;6.00;;;10.70;95.10;;;;;;20919504;28;20216;-72
2022/04/05 20:25:55;;;;;;;8.20;6.20;;;10.80;95.20;;;;;;20833246;28;20243;-71
2022/04/05 20:35:59;;;;;;;8.70;6.53;;;10.90;95.30;;;;;;20835607;28;20209;-70
2022/04/05 20:46:01;;;;;;;8.37;6.83;;;10.90;95.30;;;;;;20834979;28;20323;-69
2022/04/05 20:56:03;;;;;;;8.77;6.83;;;10.90;95.50;;;;;;20834073;28;20739;-68
2022/04/05 21:06:05;;;;;;;8.97;7.40;;;11.00;95.50;;;;;;20832913;28;20294;-68
2022/04/05 21:16:10;;;;;;;10.20;6.80;;;11.00;95.50;;;;;;20831201;28;20224;-68
2022/04/05 21:26:12;;;;;;;9.57;6.93;;;11.00;95.20;;;;;;20832946;28;20591;-69
2022/04/05 21:36:14;;;;;;;9.23;6.70;;;11.00;95.40;;;;;;20830303;28;20205;-69
2022/04/05 21:46:16;;;;;;;8.43;6.63;;;10.90;95.30;;;;;;20830734;28;20232;-70
2022/04/05 21:56:17;;;;;;;8.63;6.83;;;10.90;95.40;;;;;;20830127;28;20215;-69
2022/04/05 22:07:58;;;;;;;8.53;6.80;;;10.90;95.40;;;;;;20984201;28;20591;-70
2022/04/05 22:17:59;;;;;;;8.40;6.60;;;10.90;95.50;;;;;;20958709;28;20211;-72
2022/04/05 22:28:01;;;;;;;7.87;6.50;;;11.00;95.70;;;;;;20896917;28;20583;-70
2022/04/05 22:38:03;;;;;;;8.07;6.37;;;11.00;95.70;;;;;;20899289;28;20217;-69
2022/04/05 22:48:06;;;;;;;10.23;6.23;;;10.90;95.50;;;;;;20908330;28;20250;-71
2022/04/05 22:58:08;;;;;;;7.87;6.07;;;10.80;95.40;;;;;;20906319;28;20218;-72
2022/04/05 23:08:09;;;;;;;6.60;5.23;;;10.70;95.50;;;;;;20900893;28;20212;-71
2022/04/05 23:18:11;;;;;;;6.73;5.50;;;10.80;95.60;;;;;;20847638;28;20206;-70
2022/04/05 23:28:13;;;;;;;6.80;4.97;;;10.80;95.70;;;;;;20841335;28;20287;-71
2022/04/05 23:38:15;;;;;;;6.43;5.23;;;10.80;96.20;;;;;;20839436;28;20255;-71
2022/04/05 23:48:17;;;;;;;6.73;5.03;;;10.90;95.70;;;;;;20838836;28;20215;-71
2022/04/05 23:58:19;;;;;;;6.13;4.80;;;10.90;96.00;;;;;;20837899;28;20240;-70
